Time;durP1;ratioP1;P1;durP2;ratioP2;P2;SDS_P1;SDS_P2;PMS_P1;PMS_P2;Temp;Humidity;BMP_temperature;BMP_pressure;BME280_temperature;BME280_humidity;BME280_pressure;Samples;Min_cycle;Max_cycle;Signal;HPM_P1;HPM_P2
2021/01/13 00:00:18;;;;;;;4.53;1.00;;;3.40;83.60;;;;;;4951019;28;20047;-81
2021/01/13 00:02:44;;;;;;;2.90;0.90;;;3.50;83.10;;;;;;4951881;28;20043;-81
2021/01/13 00:05:13;;;;;;;1.70;0.63;;;3.60;82.50;;;;;;4951419;28;20115;-81
2021/01/13 00:07:42;;;;;;;3.60;0.90;;;3.60;82.30;;;;;;4950974;28;20047;-81
2021/01/13 00:10:09;;;;;;;2.03;0.77;;;3.80;82.20;;;;;;4955100;28;20130;-81
2021/01/13 00:12:36;;;;;;;2.47;1.00;;;3.90;81.70;;;;;;4967426;28;20039;-82
2021/01/13 00:15:07;;;;;;;2.78;0.93;;;4.00;81.10;;;;;;4952499;28;20039;-81
2021/01/13 00:17:33;;;;;;;3.20;0.93;;;4.00;82.20;;;;;;4954312;28;20046;-81
2021/01/13 00:19:59;;;;;;;5.85;0.90;;;3.90;82.90;;;;;;4954819;29;20103;-82
2021/01/13 00:22:25;;;;;;;5.60;1.05;;;3.80;83.70;;;;;;4952736;28;20487;-82
2021/01/13 00:24:54;;;;;;;5.72;0.85;;;3.70;84.30;;;;;;4969548;28;20043;-82
2021/01/13 00:27:21;;;;;;;5.28;0.90;;;3.70;84.40;;;;;;4953755;28;20044;-82
2021/01/13 00:29:49;;;;;;;3.40;0.80;;;3.60;84.70;;;;;;4954802;28;20042;-82
2021/01/13 00:32:15;;;;;;;8.10;1.55;;;3.60;84.80;;;;;;4955003;28;20495;-80
2021/01/13 00:34:41;;;;;;;7.30;1.85;;;3.50;85.30;;;;;;4968980;28;20073;-82
2021/01/13 00:37:08;;;;;;;7.15;2.30;;;3.40;86.00;;;;;;4954105;28;20043;-81
2021/01/13 00:39:35;;;;;;;5.47;2.13;;;3.40;86.60;;;;;;4953337;28;20039;-81
2021/01/13 00:42:04;;;;;;;6.00;2.50;;;3.40;86.90;;;;;;4955719;28;20043;-82
2021/01/13 00:44:31;;;;;;;6.10;2.35;;;3.30;87.40;;;;;;4953614;28;20047;-81
2021/01/13 00:46:57;;;;;;;6.63;2.60;;;3.30;87.60;;;;;;4953812;28;20644;-81
2021/01/13 00:49:23;;;;;;;7.40;2.65;;;3.30;87.80;;;;;;4953408;28;20047;-82
2021/01/13 00:51:48;;;;;;;5.93;2.70;;;3.30;88.20;;;;;;4954326;28;20403;-82
2021/01/13 00:54:14;;;;;;;8.57;2.53;;;3.20;88.50;;;;;;4944144;28;20047;-81
2021/01/13 00:56:48;;;;;;;5.15;1.95;;;3.20;88.90;;;;;;4953612;28;20082;-82
2021/01/13 00:59:14;;;;;;;10.85;2.03;;;3.20;89.50;;;;;;4951987;28;20066;-83
2021/01/13 01:01:42;;;;;;;7.50;1.92;;;3.20;89.60;;;;;;4968598;28;20495;-82
2021/01/13 01:04:09;;;;;;;9.02;1.75;;;3.20;89.90;;;;;;4954269;28;20043;-81
2021/01/13 01:06:35;;;;;;;6.95;1.80;;;3.30;89.30;;;;;;4953139;28;20043;-81
2021/01/13 01:09:02;;;;;;;7.47;1.90;;;3.40;88.80;;;;;;4954167;28;20495;-82
2021/01/13 01:11:35;;;;;;;7.13;1.80;;;3.30;89.10;;;;;;4965445;28;20147;-82
2021/01/13 01:14:02;;;;;;;6.30;1.83;;;3.40;89.40;;;;;;4951794;28;20043;-81
2021/01/13 01:16:29;;;;;;;8.52;2.08;;;3.30;89.60;;;;;;4952124;28;20075;-82
2021/01/13 01:18:55;;;;;;;5.82;1.80;;;3.30;90.00;;;;;;4966075;28;20055;-81
2021/01/13 01:21:21;;;;;;;9.88;1.60;;;3.20;90.10;;;;;;4952254;28;20051;-81
2021/01/13 01:23:47;;;;;;;13.18;2.10;;;3.30;90.30;;;;;;4953781;28;20077;-82
2021/01/13 01:26:13;;;;;;;8.43;2.08;;;3.40;90.20;;;;;;4953600;29;20069;-82
2021/01/13 01:28:38;;;;;;;9.93;1.58;;;3.50;90.30;;;;;;4952634;29;20491;-82
2021/01/13 01:31:05;;;;;;;12.27;1.50;;;3.60;89.70;;;;;;4952239;28;20403;-81
2021/01/13 01:33:31;;;;;;;6.15;1.40;;;3.70;89.20;;;;;;4951740;28;20055;-81
2021/01/13 01:35:57;;;;;;;9.63;1.58;;;3.70;89.10;;;;;;4952771;29;20047;-81
2021/01/13 01:38:23;;;;;;;9.65;1.80;;;3.70;89.30;;;;;;4952524;28;20102;-81
2021/01/13 01:40:49;;;;;;;7.68;1.27;;;3.90;89.40;;;;;;4953774;28;20403;-80
2021/01/13 01:43:15;;;;;;;7.95;1.55;;;3.90;89.60;;;;;;4953431;29;20114;-82
2021/01/13 01:45:41;;;;;;;5.57;1.15;;;4.00;90.20;;;;;;4951988;28;20072;-81
2021/01/13 01:48:14;;;;;;;5.88;1.45;;;4.10;90.00;;;;;;4953210;28;20039;-81
2021/01/13 01:50:46;;;;;;;5.38;1.58;;;4.00;90.20;;;;;;4951742;29;20043;-82
2021/01/13 01:53:21;;;;;;;7.68;1.55;;;3.90;90.40;;;;;;4952516;28;20062;-81
2021/01/13 01:55:57;;;;;;;6.60;1.30;;;3.90;90.60;;;;;;4953075;28;20026;-81
2021/01/13 01:58:28;;;;;;;6.82;1.33;;;3.90;90.70;;;;;;4952285;29;20039;-81
2021/01/13 02:00:59;;;;;;;4.03;1.23;;;3.90;90.60;;;;;;4968461;28;20047;-81
2021/01/13 02:03:52;;;;;;;3.38;0.80;;;4.10;90.90;;;;;;4951317;28;20075;-81
2021/01/13 02:06:19;;;;;;;3.33;1.00;;;4.20;91.10;;;;;;4953566;28;20479;-80
2021/01/13 02:08:46;;;;;;;2.42;0.77;;;3.90;91.90;;;;;;4952920;29;20466;-81
2021/01/13 02:11:20;;;;;;;3.15;1.15;;;3.70;92.20;;;;;;4954344;29;20055;-82
2021/01/13 02:13:47;;;;;;;4.05;0.93;;;3.60;92.60;;;;;;4953726;29;20042;-81
2021/01/13 02:16:15;;;;;;;3.53;0.70;;;3.50;92.90;;;;;;4954351;29;20051;-81
2021/01/13 02:18:42;;;;;;;4.78;1.15;;;3.50;92.90;;;;;;4964427;28;20177;-81
2021/01/13 02:21:16;;;;;;;4.38;0.88;;;3.40;92.80;;;;;;4973301;28;20498;-82
2021/01/13 02:23:56;;;;;;;6.30;1.02;;;3.50;92.70;;;;;;4971245;28;20753;-81
2021/01/13 02:26:36;;;;;;;4.65;1.10;;;3.50;92.60;;;;;;4971773;28;20130;-80
2021/01/13 02:29:11;;;;;;;5.90;0.98;;;3.50;92.60;;;;;;4973463;28;20050;-81
2021/01/13 02:31:57;;;;;;;7.57;1.00;;;3.60;92.60;;;;;;4972291;28;20482;-81
2021/01/13 02:34:34;;;;;;;2.67;0.82;;;3.60;92.50;;;;;;4969580;28;20047;-79
2021/01/13 02:37:03;;;;;;;4.47;0.90;;;3.70;92.30;;;;;;4953957;29;20118;-82
2021/01/13 02:39:33;;;;;;;9.48;1.33;;;3.70;92.30;;;;;;4952864;29;20051;-81
2021/01/13 02:42:00;;;;;;;5.97;0.90;;;3.70;92.20;;;;;;4968975;28;20126;-81
2021/01/13 02:44:30;;;;;;;1.67;0.70;;;3.80;91.80;;;;;;4952433;29;20055;-80
2021/01/13 02:46:56;;;;;;;5.80;1.00;;;3.90;91.30;;;;;;4940815;29;20090;-81
2021/01/13 02:49:26;;;;;;;4.32;0.90;;;4.00;91.20;;;;;;4953316;29;20082;-80
2021/01/13 02:51:57;;;;;;;4.78;0.88;;;4.00;91.20;;;;;;4953669;29;20055;-82
2021/01/13 02:54:41;;;;;;;7.15;1.10;;;4.00;91.00;;;;;;4952713;29;20051;-80
2021/01/13 02:57:17;;;;;;;5.45;1.05;;;4.10;90.90;;;;;;4953752;28;20036;-82
2021/01/13 02:59:45;;;;;;;4.95;1.20;;;4.10;90.90;;;;;;4952910;28;20054;-82
2021/01/13 03:02:12;;;;;;;8.48;1.30;;;4.10;90.80;;;;;;4952646;29;20043;-82
2021/01/13 03:04:39;;;;;;;6.05;1.20;;;4.10;90.70;;;;;;4952486;28;20070;-82
2021/01/13 03:07:13;;;;;;;8.40;1.50;;;4.10;90.70;;;;;;4968599;28;20047;-81
2021/01/13 03:09:46;;;;;;;4.68;1.10;;;4.10;90.40;;;;;;4951234;29;20071;-81
2021/01/13 03:12:25;;;;;;;5.75;1.38;;;4.20;90.30;;;;;;4952213;29;20047;-82
2021/01/13 03:14:56;;;;;;;2.53;0.73;;;4.40;90.30;;;;;;4967985;28;20051;-82
2021/01/13 03:17:34;;;;;;;4.88;0.80;;;4.60;90.30;;;;;;4968760;28;20399;-82
2021/01/13 03:20:19;;;;;;;1.65;0.45;;;4.20;90.80;;;;;;4971813;28;20502;-82
2021/01/13 03:22:53;;;;;;;1.27;0.57;;;3.90;91.30;;;;;;4971972;28;20069;-82
2021/01/13 03:25:23;;;;;;;2.70;0.77;;;3.70;91.70;;;;;;4956517;28;20043;-81
2021/01/13 03:27:51;;;;;;;3.15;0.70;;;3.60;91.90;;;;;;4952775;28;20047;-81
2021/01/13 03:30:19;;;;;;;3.30;1.05;;;3.60;92.00;;;;;;4952443;29;20058;-81
2021/01/13 03:32:54;;;;;;;5.35;1.15;;;3.40;92.20;;;;;;4952235;28;20031;-81
2021/01/13 03:35:22;;;;;;;;;;;3.40;92.50;;;;;;4953559;28;20051;-82
2021/01/13 03:37:56;;;;;;;5.32;1.10;;;3.40;92.20;;;;;;4951495;29;20708;-81
2021/01/13 03:40:24;;;;;;;4.43;0.98;;;3.50;92.10;;;;;;4953461;28;20071;-82
2021/01/13 03:42:53;;;;;;;3.08;0.70;;;3.50;92.10;;;;;;4952720;28;20055;-81
2021/01/13 03:45:32;;;;;;;11.80;1.48;;;3.50;91.90;;;;;;4971957;28;20050;-82
2021/01/13 03:48:35;;;;;;;7.97;1.35;;;3.50;91.90;;;;;;4955517;29;20479;-82
2021/01/13 03:51:02;;;;;;;2.83;0.82;;;3.50;91.80;;;;;;4957053;29;20050;-82
2021/01/13 03:53:29;;;;;;;6.38;1.05;;;3.70;91.40;;;;;;4955714;28;20501;-80
2021/01/13 03:55:57;;;;;;;4.97;0.98;;;3.70;91.50;;;;;;4956105;29;20495;-81
2021/01/13 03:59:04;;;;;;;10.38;1.73;;;3.80;91.40;;;;;;4956801;28;20051;-82
2021/01/13 04:01:34;;;;;;;;;;;3.80;91.30;;;;;;4946779;29;20098;-80
2021/01/13 04:04:15;;;;;;;5.63;1.38;;;3.90;91.40;;;;;;4956543;28;19922;-81
2021/01/13 04:06:43;;;;;;;5.47;1.20;;;3.90;91.20;;;;;;4954532;29;20044;-82
2021/01/13 04:09:11;;;;;;;5.35;1.10;;;4.00;91.30;;;;;;4955047;29;20178;-82
2021/01/13 04:11:37;;;;;;;7.32;1.27;;;4.00;91.30;;;;;;4954304;29;20098;-82
2021/01/13 04:14:04;;;;;;;6.75;1.38;;;4.00;91.30;;;;;;4955314;29;20039;-83
2021/01/13 04:16:36;;;;;;;7.25;1.15;;;4.10;91.20;;;;;;4970962;28;20051;-80
2021/01/13 04:19:03;;;;;;;4.85;1.20;;;4.10;91.10;;;;;;4985180;28;20043;-82
2021/01/13 04:21:29;;;;;;;9.80;1.40;;;4.10;91.00;;;;;;4975415;28;20169;-80
2021/01/13 04:23:59;;;;;;;5.78;1.40;;;4.10;91.00;;;;;;4970184;28;20118;-81
2021/01/13 04:26:26;;;;;;;8.23;1.33;;;4.10;91.00;;;;;;4956345;28;20075;-82
2021/01/13 04:28:52;;;;;;;8.57;1.70;;;4.00;91.10;;;;;;4955162;28;20122;-81
2021/01/13 04:31:18;;;;;;;8.38;1.40;;;4.00;91.20;;;;;;4956188;28;20130;-81
2021/01/13 04:33:45;;;;;;;7.35;1.20;;;4.10;91.30;;;;;;4955126;28;20047;-82
2021/01/13 04:36:12;;;;;;;8.73;1.85;;;4.00;91.40;;;;;;4956217;28;20051;-83
2021/01/13 04:38:38;;;;;;;10.75;1.55;;;4.00;91.40;;;;;;4955195;28;20125;-82
2021/01/13 04:41:09;;;;;;;6.00;1.20;;;4.00;91.40;;;;;;4955731;29;20049;-82
2021/01/13 04:43:44;;;;;;;6.40;1.27;;;4.00;91.10;;;;;;4955389;29;20047;-81
2021/01/13 04:46:36;;;;;;;5.63;0.88;;;4.10;90.80;;;;;;4955879;29;20051;-82
2021/01/13 04:49:02;;;;;;;1.27;0.50;;;4.10;90.10;;;;;;4955642;28;20480;-82
2021/01/13 04:51:33;;;;;;;5.03;0.90;;;4.20;89.60;;;;;;4955847;29;20047;-82
2021/01/13 04:54:03;;;;;;;4.65;0.98;;;4.30;88.80;;;;;;4954928;28;20414;-82
2021/01/13 04:56:37;;;;;;;2.47;0.73;;;4.20;89.20;;;;;;4955884;29;20043;-82
2021/01/13 04:59:23;;;;;;;5.80;1.00;;;4.20;89.10;;;;;;4955757;29;20054;-82
2021/01/13 05:02:08;;;;;;;5.45;0.95;;;4.10;90.00;;;;;;4954807;29;20125;-82
2021/01/13 05:04:59;;;;;;;4.30;1.30;;;4.00;90.40;;;;;;4954997;29;20043;-80
2021/01/13 05:07:35;;;;;;;8.23;1.17;;;4.10;90.50;;;;;;4954358;29;20050;-82
2021/01/13 05:10:07;;;;;;;4.57;0.93;;;4.20;90.60;;;;;;4955297;29;20055;-82
2021/01/13 05:12:50;;;;;;;2.67;0.82;;;4.30;90.60;;;;;;4969496;28;20051;-80
2021/01/13 05:15:18;;;;;;;7.75;1.20;;;4.20;90.50;;;;;;4969981;28;20050;-82
2021/01/13 05:18:01;;;;;;;7.30;1.30;;;4.00;90.70;;;;;;4957746;28;20508;-82
2021/01/13 05:20:37;;;;;;;9.70;1.50;;;3.90;91.10;;;;;;4974511;28;20082;-82
2021/01/13 05:23:05;;;;;;;5.22;1.25;;;3.90;91.10;;;;;;4974700;28;20483;-81
2021/01/13 05:25:34;;;;;;;5.20;1.00;;;3.90;90.90;;;;;;4953117;28;20047;-82
2021/01/13 05:28:03;;;;;;;6.50;1.40;;;3.90;90.90;;;;;;4954288;29;20075;-82
2021/01/13 05:30:33;;;;;;;4.63;1.25;;;3.70;90.60;;;;;;4955140;28;20051;-82
2021/01/13 05:32:59;;;;;;;5.70;1.10;;;3.80;90.40;;;;;;4954313;28;20123;-82
2021/01/13 05:35:47;;;;;;;5.05;1.38;;;3.90;90.00;;;;;;4954945;28;20074;-82
2021/01/13 05:38:24;;;;;;;9.65;1.52;;;3.90;89.90;;;;;;4955069;28;20055;-82
2021/01/13 05:40:52;;;;;;;9.30;1.27;;;3.90;89.90;;;;;;4952985;29;20475;-83
2021/01/13 05:43:20;;;;;;;8.45;1.40;;;3.90;90.40;;;;;;4954652;28;20040;-82
2021/01/13 05:45:47;;;;;;;8.23;1.45;;;3.80;90.30;;;;;;4953787;29;20051;-83
2021/01/13 05:48:16;;;;;;;8.63;1.42;;;3.80;90.40;;;;;;4954515;29;20078;-82
2021/01/13 05:50:42;;;;;;;8.45;2.10;;;3.70;90.50;;;;;;4953832;29;20082;-82
2021/01/13 05:53:08;;;;;;;6.25;1.27;;;3.80;90.60;;;;;;4953363;29;20047;-83
2021/01/13 05:55:34;;;;;;;9.70;1.48;;;3.90;90.60;;;;;;4954634;28;20047;-82
2021/01/13 05:58:02;;;;;;;8.38;1.30;;;3.90;90.80;;;;;;4953792;29;20142;-82
2021/01/13 06:00:30;;;;;;;7.68;1.50;;;3.90;90.80;;;;;;4954450;29;20118;-83
2021/01/13 06:03:00;;;;;;;8.63;1.67;;;3.90;90.90;;;;;;4953149;29;20049;-82
2021/01/13 06:05:31;;;;;;;8.85;1.60;;;4.00;91.00;;;;;;4954153;28;20059;-82
2021/01/13 06:07:59;;;;;;;8.13;1.30;;;4.00;91.10;;;;;;4953610;28;20039;-82
2021/01/13 06:10:34;;;;;;;6.05;1.35;;;4.10;91.40;;;;;;4953989;28;20055;-82
2021/01/13 06:13:02;;;;;;;7.57;1.73;;;4.20;91.00;;;;;;4953308;28;20365;-83
2021/01/13 06:15:29;;;;;;;8.32;1.50;;;4.20;91.20;;;;;;4969144;28;20297;-83
2021/01/13 06:17:56;;;;;;;12.48;1.65;;;4.10;91.20;;;;;;4957116;28;20039;-81
2021/01/13 06:20:27;;;;;;;10.35;1.92;;;4.20;91.10;;;;;;4972300;28;20077;-82
2021/01/13 06:22:56;;;;;;;9.45;1.70;;;4.10;91.30;;;;;;4967708;28;20055;-82
2021/01/13 06:25:30;;;;;;;6.15;1.23;;;4.10;91.40;;;;;;4953839;28;20055;-82
2021/01/13 06:28:33;;;;;;;6.10;1.50;;;4.20;91.10;;;;;;4953287;28;20051;-81
2021/01/13 06:31:07;;;;;;;6.72;1.20;;;4.10;90.90;;;;;;4953257;29;20050;-82
2021/01/13 06:33:55;;;;;;;8.07;1.77;;;4.00;91.00;;;;;;4954093;28;20050;-84
2021/01/13 06:36:30;;;;;;;7.88;1.83;;;4.00;91.20;;;;;;4953573;29;20055;-83
2021/01/13 06:39:04;;;;;;;5.85;1.20;;;3.90;91.40;;;;;;4967809;28;20122;-82
2021/01/13 06:41:47;;;;;;;9.48;1.48;;;3.80;91.60;;;;;;4953769;28;20421;-82
2021/01/13 06:44:15;;;;;;;10.90;1.80;;;3.80;91.80;;;;;;4954020;28;20043;-83
2021/01/13 06:46:41;;;;;;;11.50;1.83;;;3.70;92.00;;;;;;4952257;29;20054;-80
2021/01/13 06:49:21;;;;;;;11.07;2.00;;;3.60;92.10;;;;;;4953288;29;20055;-82
2021/01/13 06:51:49;;;;;;;10.75;2.50;;;3.60;92.30;;;;;;4951703;29;20479;-82
2021/01/13 06:54:19;;;;;;;12.48;3.50;;;3.50;92.30;;;;;;4965032;28;20514;-82
2021/01/13 06:56:46;;;;;;;10.93;1.95;;;3.40;92.40;;;;;;4944763;29;20399;-80
2021/01/13 06:59:13;;;;;;;11.15;2.00;;;3.40;92.50;;;;;;4952835;29;20122;-78
2021/01/13 07:01:56;;;;;;;12.68;1.92;;;3.40;92.70;;;;;;4952451;28;20051;-79
2021/01/13 07:04:23;;;;;;;10.38;1.52;;;3.40;92.70;;;;;;4952583;28;20423;-79
2021/01/13 07:07:02;;;;;;;10.50;2.17;;;3.40;92.70;;;;;;4952840;28;20070;-83
2021/01/13 07:09:36;;;;;;;12.35;2.50;;;3.40;92.70;;;;;;4953783;28;20503;-83
2021/01/13 07:12:14;;;;;;;15.35;2.90;;;3.40;93.00;;;;;;4952595;28;20339;-82
2021/01/13 07:14:42;;;;;;;20.52;2.80;;;3.50;92.80;;;;;;4953302;28;20399;-83
2021/01/13 07:17:12;;;;;;;16.80;2.67;;;3.50;92.80;;;;;;4935452;29;20415;-83
2021/01/13 07:19:44;;;;;;;11.60;2.72;;;3.60;92.80;;;;;;4975310;28;20498;-83
2021/01/13 07:22:11;;;;;;;11.35;2.03;;;3.80;92.60;;;;;;4976213;28;20491;-84
2021/01/13 07:24:37;;;;;;;10.07;2.42;;;3.80;92.40;;;;;;4958686;28;20059;-82
2021/01/13 07:27:03;;;;;;;10.82;1.90;;;3.90;92.10;;;;;;4955852;28;20047;-81
2021/01/13 07:29:29;;;;;;;10.38;2.30;;;3.90;92.10;;;;;;4957143;29;20158;-80
2021/01/13 07:31:57;;;;;;;12.63;2.20;;;4.00;92.20;;;;;;4956159;29;20075;-81
2021/01/13 07:34:34;;;;;;;9.02;2.00;;;3.90;92.30;;;;;;4957239;28;20047;-81
2021/01/13 07:37:02;;;;;;;7.97;1.80;;;4.10;92.00;;;;;;4956513;28;20440;-81
2021/01/13 07:40:00;;;;;;;11.13;2.33;;;4.10;91.60;;;;;;4957660;29;20050;-81
2021/01/13 07:42:38;;;;;;;7.82;1.30;;;4.20;91.20;;;;;;4957468;28;20069;-80
2021/01/13 07:45:21;;;;;;;14.50;2.40;;;4.10;91.00;;;;;;4971568;28;20491;-80
2021/01/13 07:47:55;;;;;;;13.52;1.90;;;4.10;90.90;;;;;;4956878;28;20511;-80
2021/01/13 07:50:22;;;;;;;10.88;2.42;;;4.10;90.90;;;;;;4957480;29;20043;-80
2021/01/13 07:52:49;;;;;;;13.68;2.38;;;4.10;90.90;;;;;;4956115;28;20075;-80
2021/01/13 07:55:16;;;;;;;8.07;1.85;;;4.00;91.00;;;;;;4956886;29;20066;-80
2021/01/13 07:58:01;;;;;;;13.35;2.17;;;4.00;90.70;;;;;;4969391;28;20059;-80
2021/01/13 08:00:36;;;;;;;9.75;2.10;;;4.00;90.70;;;;;;4956467;28;20051;-81
2021/01/13 08:03:02;;;;;;;11.77;2.03;;;4.00;90.80;;;;;;4955257;29;20073;-81
2021/01/13 08:06:06;;;;;;;11.68;2.42;;;4.00;90.80;;;;;;4956095;29;20484;-81
2021/01/13 08:09:02;;;;;;;15.35;2.40;;;3.90;91.00;;;;;;4956653;29;20058;-82
2021/01/13 08:12:00;;;;;;;14.07;2.35;;;3.90;91.00;;;;;;4954916;29;20385;-82
2021/01/13 08:14:50;;;;;;;15.13;3.53;;;3.90;90.90;;;;;;4955453;29;20047;-81
2021/01/13 08:17:39;;;;;;;11.98;3.30;;;3.90;90.90;;;;;;4956039;29;20478;-83
2021/01/13 08:20:26;;;;;;;13.57;3.90;;;3.90;91.30;;;;;;4936453;29;20044;-83
2021/01/13 08:23:09;;;;;;;11.48;3.15;;;3.90;91.10;;;;;;4935047;29;20164;-82
2021/01/13 08:25:42;;;;;;;9.85;2.92;;;3.80;91.10;;;;;;4937435;29;20126;-84
2021/01/13 08:28:12;;;;;;;14.98;3.33;;;3.90;91.00;;;;;;4935959;29;20146;-83
2021/01/13 08:30:47;;;;;;;11.27;2.40;;;3.90;91.00;;;;;;4939965;29;20051;-83
2021/01/13 08:33:24;;;;;;;15.07;2.63;;;3.90;91.00;;;;;;4953808;29;20043;-83
2021/01/13 08:35:58;;;;;;;9.25;3.35;;;4.00;90.70;;;;;;4955603;28;20039;-81
2021/01/13 08:38:25;;;;;;;12.77;3.13;;;4.00;90.50;;;;;;4955881;28;20047;-82
2021/01/13 08:40:52;;;;;;;10.40;2.42;;;4.10;90.50;;;;;;4955171;28;20488;-81
2021/01/13 08:43:19;;;;;;;13.40;2.00;;;4.10;90.30;;;;;;4955214;28;20503;-83
2021/01/13 08:45:47;;;;;;;9.18;2.45;;;4.20;90.00;;;;;;4957850;28;20795;-82
2021/01/13 08:48:18;;;;;;;11.48;2.35;;;4.20;90.00;;;;;;4960850;28;20135;-83
2021/01/13 08:51:04;;;;;;;15.15;3.35;;;4.20;90.30;;;;;;4935754;29;20381;-82
2021/01/13 08:53:32;;;;;;;10.23;2.30;;;4.30;90.50;;;;;;4929244;29;20138;-83
2021/01/13 08:55:58;;;;;;;12.20;2.60;;;4.40;90.50;;;;;;4938765;28;20058;-82
2021/01/13 08:58:34;;;;;;;9.70;2.50;;;4.50;90.30;;;;;;4958373;28;20043;-83
2021/01/13 09:01:08;;;;;;;9.90;3.05;;;4.50;90.40;;;;;;4952710;29;20040;-82
2021/01/13 09:03:43;;;;;;;11.68;2.40;;;4.50;90.10;;;;;;4969817;28;20059;-82
2021/01/13 09:06:27;;;;;;;9.30;1.63;;;4.60;90.00;;;;;;4952673;29;20043;-82
2021/01/13 09:08:59;;;;;;;9.45;1.75;;;4.70;89.50;;;;;;4954688;28;20094;-80
2021/01/13 09:11:31;;;;;;;11.88;1.95;;;4.80;88.90;;;;;;4953414;28;20146;-83
2021/01/13 09:14:24;;;;;;;4.22;1.30;;;4.80;88.40;;;;;;4954308;28;20056;-83
2021/01/13 09:16:51;;;;;;;7.50;1.50;;;5.00;87.30;;;;;;4953395;29;20487;-82
2021/01/13 09:19:32;;;;;;;9.38;1.98;;;5.10;87.20;;;;;;4959439;28;20094;-82
2021/01/13 09:22:00;;;;;;;10.63;1.40;;;5.20;87.00;;;;;;4969302;28;20063;-82
2021/01/13 09:24:40;;;;;;;6.95;1.60;;;5.30;86.50;;;;;;4955209;28;20062;-83
2021/01/13 09:27:08;;;;;;;7.57;1.65;;;5.40;86.60;;;;;;4954103;29;20047;-82
2021/01/13 09:29:48;;;;;;;13.10;2.58;;;5.50;87.00;;;;;;4953170;29;20051;-83
2021/01/13 09:32:18;;;;;;;10.43;1.90;;;5.50;86.10;;;;;;4952712;29;20082;-82
2021/01/13 09:34:49;;;;;;;8.48;1.58;;;5.50;86.20;;;;;;4955103;29;20071;-82
2021/01/13 09:37:16;;;;;;;11.98;2.00;;;5.50;86.30;;;;;;4969125;28;20506;-83
2021/01/13 09:39:56;;;;;;;14.18;1.90;;;5.40;86.90;;;;;;4955073;28;20046;-83
2021/01/13 09:42:34;;;;;;;7.82;1.65;;;5.50;86.90;;;;;;4954208;29;20047;-83
2021/01/13 09:45:01;;;;;;;8.70;1.52;;;5.50;86.00;;;;;;4953608;29;20094;-83
2021/01/13 09:47:28;;;;;;;8.45;1.80;;;5.60;86.20;;;;;;4969491;28;20098;-82
2021/01/13 09:49:57;;;;;;;8.80;2.15;;;5.70;84.80;;;;;;4954589;29;20053;-80
2021/01/13 09:52:24;;;;;;;11.05;3.13;;;5.80;85.10;;;;;;4954522;28;20046;-82
2021/01/13 09:54:51;;;;;;;10.65;2.85;;;5.80;84.60;;;;;;4953483;29;20075;-83
2021/01/13 09:57:18;;;;;;;7.80;2.50;;;5.90;84.50;;;;;;4952335;29;20167;-82
2021/01/13 10:00:09;;;;;;;6.40;1.48;;;6.00;83.90;;;;;;4952946;29;20106;-83
2021/01/13 10:02:35;;;;;;;8.73;1.55;;;6.10;84.70;;;;;;4954543;28;20053;-83
2021/01/13 10:05:02;;;;;;;6.10;1.10;;;6.20;84.30;;;;;;4953398;28;20043;-82
2021/01/13 10:07:33;;;;;;;8.35;1.38;;;6.20;82.50;;;;;;4953239;29;20043;-83
2021/01/13 10:10:01;;;;;;;6.80;1.38;;;6.10;82.60;;;;;;4951894;29;20170;-82
2021/01/13 10:12:35;;;;;;;8.32;1.48;;;6.10;83.10;;;;;;4954112;28;20062;-83
2021/01/13 10:15:09;;;;;;;5.57;1.20;;;6.00;83.40;;;;;;4952937;28;20047;-83
2021/01/13 10:17:36;;;;;;;6.90;1.27;;;6.00;83.80;;;;;;4971189;28;20373;-83
2021/01/13 10:20:15;;;;;;;7.75;1.50;;;6.10;83.30;;;;;;4971319;28;20078;-82
2021/01/13 10:22:42;;;;;;;8.68;1.58;;;6.20;84.00;;;;;;4973292;28;20050;-82
2021/01/13 10:25:08;;;;;;;7.10;1.60;;;6.30;82.90;;;;;;4971431;28;20047;-83
2021/01/13 10:27:41;;;;;;;5.95;1.33;;;6.40;83.10;;;;;;4973293;28;20047;-81
2021/01/13 10:30:12;;;;;;;3.55;1.05;;;6.40;81.80;;;;;;4972574;28;20135;-82
2021/01/13 10:32:55;;;;;;;6.65;1.73;;;6.50;81.60;;;;;;4972089;28;20133;-83
2021/01/13 10:35:23;;;;;;;6.85;1.42;;;6.50;81.70;;;;;;4972417;28;20097;-83
2021/01/13 10:37:50;;;;;;;5.68;1.38;;;6.60;81.90;;;;;;4973032;28;20046;-83
2021/01/13 10:40:20;;;;;;;9.93;1.90;;;6.70;81.30;;;;;;4970893;28;20133;-83
2021/01/13 10:42:52;;;;;;;5.50;1.30;;;6.60;81.50;;;;;;4973254;28;20043;-83
2021/01/13 10:45:19;;;;;;;7.60;1.60;;;6.50;81.00;;;;;;4965131;28;20047;-83
2021/01/13 10:47:57;;;;;;;9.13;1.80;;;6.50;80.90;;;;;;4953341;28;20699;-84
2021/01/13 10:50:25;;;;;;;5.85;1.15;;;6.40;81.60;;;;;;4951900;29;20047;-83
2021/01/13 10:52:54;;;;;;;5.72;1.30;;;6.40;79.50;;;;;;4952099;28;20075;-83
2021/01/13 10:55:24;;;;;;;9.20;1.80;;;6.30;79.80;;;;;;4952862;28;20046;-83
2021/01/13 10:57:51;;;;;;;4.72;1.30;;;6.20;79.50;;;;;;4953241;28;20052;-83
2021/01/13 11:00:18;;;;;;;6.80;1.00;;;6.20;79.40;;;;;;4952917;28;20043;-83
2021/01/13 11:02:54;;;;;;;6.00;1.38;;;6.20;80.30;;;;;;4953337;28;20039;-83
2021/01/13 11:05:20;;;;;;;9.45;2.25;;;6.20;80.00;;;;;;4951600;29;20043;-83
2021/01/13 11:07:47;;;;;;;10.55;1.90;;;6.20;80.90;;;;;;4951927;29;20078;-83
2021/01/13 11:10:14;;;;;;;5.65;1.27;;;6.20;81.20;;;;;;4952341;28;20051;-83
2021/01/13 11:12:40;;;;;;;6.43;1.52;;;6.20;81.80;;;;;;4951815;29;20502;-82
2021/01/13 11:15:08;;;;;;;6.72;1.50;;;6.20;81.10;;;;;;4952374;28;20047;-83
2021/01/13 11:17:35;;;;;;;5.88;1.17;;;6.20;80.60;;;;;;4955379;28;20131;-83
2021/01/13 11:20:06;;;;;;;5.80;1.52;;;6.40;80.10;;;;;;4972638;28;20094;-81
2021/01/13 11:22:46;;;;;;;6.88;1.40;;;6.30;79.30;;;;;;4987759;28;20121;-83
2021/01/13 11:25:21;;;;;;;7.75;1.40;;;6.30;79.70;;;;;;4971672;28;20430;-83
2021/01/13 11:27:58;;;;;;;6.75;1.30;;;6.30;79.20;;;;;;4971701;28;20479;-82
2021/01/13 11:30:25;;;;;;;7.18;1.27;;;6.30;80.10;;;;;;4971834;28;20480;-83
2021/01/13 11:32:53;;;;;;;8.45;1.25;;;6.30;80.70;;;;;;4972352;28;20066;-83
2021/01/13 11:35:29;;;;;;;9.52;2.03;;;6.30;80.40;;;;;;4971883;28;20137;-81
2021/01/13 11:38:33;;;;;;;11.18;2.03;;;6.50;79.50;;;;;;4958303;28;20508;-82
2021/01/13 11:41:18;;;;;;;7.53;1.40;;;6.40;79.70;;;;;;4953203;29;20082;-82
2021/01/13 11:43:51;;;;;;;5.65;1.63;;;6.50;79.20;;;;;;4953306;29;20043;-82
2021/01/13 11:46:22;;;;;;;6.95;1.33;;;6.40;79.20;;;;;;4952377;28;20043;-82
2021/01/13 11:49:20;;;;;;;6.00;1.52;;;6.30;78.40;;;;;;4953087;28;20402;-81
2021/01/13 11:51:52;;;;;;;6.13;1.30;;;6.20;77.90;;;;;;4953267;28;20491;-82
2021/01/13 11:54:24;;;;;;;2.63;1.25;;;6.20;78.80;;;;;;4952320;28;20118;-82
2021/01/13 11:56:50;;;;;;;4.90;1.10;;;6.20;78.30;;;;;;4951394;29;20425;-82
2021/01/13 11:59:29;;;;;;;9.05;1.25;;;6.30;78.20;;;;;;4951932;28;20190;-82
2021/01/13 12:02:01;;;;;;;5.45;1.20;;;6.30;78.40;;;;;;4951763;29;20102;-81
2021/01/13 12:04:27;;;;;;;8.07;1.55;;;6.40;77.80;;;;;;4953394;28;20189;-82
2021/01/13 12:06:57;;;;;;;6.05;1.35;;;6.40;78.40;;;;;;4956878;28;20039;-80
2021/01/13 12:09:24;;;;;;;7.32;1.38;;;6.50;78.30;;;;;;4954138;29;20051;-81
2021/01/13 12:11:50;;;;;;;6.57;1.30;;;6.30;79.20;;;;;;4955516;28;20082;-82
2021/01/13 12:14:16;;;;;;;6.95;1.48;;;6.30;79.90;;;;;;4938207;29;20476;-80
2021/01/13 12:16:42;;;;;;;9.15;2.35;;;6.40;79.40;;;;;;4955854;28;20047;-83
2021/01/13 12:19:08;;;;;;;4.82;1.50;;;6.50;79.50;;;;;;4970259;28;20494;-81
2021/01/13 12:21:34;;;;;;;10.18;1.77;;;6.60;79.00;;;;;;4963420;28;20066;-80
2021/01/13 12:24:14;;;;;;;10.40;1.52;;;6.60;79.20;;;;;;4955392;28;20051;-81
2021/01/13 12:26:41;;;;;;;5.38;1.52;;;6.60;80.20;;;;;;4956332;28;20066;-82
2021/01/13 12:29:06;;;;;;;7.72;1.83;;;6.70;78.60;;;;;;4955940;28;20051;-82
2021/01/13 12:31:38;;;;;;;5.90;1.48;;;6.80;79.70;;;;;;4950510;28;20057;-82
2021/01/13 12:34:10;;;;;;;2.38;1.15;;;6.90;78.20;;;;;;4953281;28;20057;-82
2021/01/13 12:36:41;;;;;;;4.35;1.08;;;6.90;78.50;;;;;;4955476;28;20118;-82
2021/01/13 12:39:07;;;;;;;5.07;1.00;;;6.90;78.70;;;;;;4955358;28;20475;-82
2021/01/13 12:41:37;;;;;;;8.20;1.83;;;7.00;77.60;;;;;;4954990;28;20051;-82
2021/01/13 12:44:10;;;;;;;7.88;1.25;;;7.10;78.60;;;;;;4954442;29;20078;-82
2021/01/13 12:46:49;;;;;;;6.30;1.30;;;7.00;81.10;;;;;;4955525;28;20058;-82
2021/01/13 12:49:16;;;;;;;4.60;1.10;;;6.70;82.10;;;;;;4955068;28;20050;-82
2021/01/13 12:51:42;;;;;;;4.15;0.90;;;6.70;79.50;;;;;;4954283;29;20073;-82
2021/01/13 12:54:08;;;;;;;1.40;0.77;;;6.60;79.70;;;;;;4953537;29;20051;-82
2021/01/13 12:56:34;;;;;;;3.03;0.90;;;6.60;77.20;;;;;;4953845;29;20062;-82
2021/01/13 12:59:01;;;;;;;3.53;0.82;;;6.40;77.30;;;;;;4954308;28;20039;-82
2021/01/13 13:01:28;;;;;;;4.22;1.23;;;6.30;76.80;;;;;;4969426;28;20058;-82
2021/01/13 13:03:57;;;;;;;3.22;1.00;;;6.10;75.20;;;;;;4954859;28;20051;-83
2021/01/13 13:06:27;;;;;;;3.83;1.02;;;6.10;75.70;;;;;;4969247;28;20082;-82
2021/01/13 13:08:59;;;;;;;4.32;0.90;;;5.90;75.80;;;;;;4955500;28;20039;-82
2021/01/13 13:11:25;;;;;;;5.57;1.00;;;5.90;76.10;;;;;;4954339;28;20067;-82
2021/01/13 13:13:51;;;;;;;4.30;0.73;;;5.90;77.60;;;;;;4955013;28;20044;-82
2021/01/13 13:16:19;;;;;;;3.10;0.80;;;5.90;79.00;;;;;;4953147;28;20051;-81
2021/01/13 13:18:46;;;;;;;4.65;1.20;;;5.90;80.40;;;;;;4966544;28;20447;-81